Airport ICAO


11:56 UTC

24°C

Clear skies


An affordable passengers' Moving Map for your aircraft. Made for the iPad and the iPhone
More information here

LFLS Saint Geoirs


Grenoble FRANCE   VFR CAVOK


METAR LFLS 191130Z AUTO VRB03KT CAVOK 24/09 Q1026 NOSIG 0h26min

TAF LFLS 190800Z 1909/2009 09005KT CAVOK 3h56min





NOTAMS

OPEN